»·PEaware :: N1399 KYKM-KPDX

N1399 :: KYKM-KPDX

FLIGHT INFORMATION

Flight Status: Arrived
Operator: Privately registered:
United States
More flights under this callsign
Pilot: David C. (16084)
Aircraft: BEECH AIRCRAFT SUPER KING AIR 350
(B350)
More flights by this aircraft type
Origin: KYKM Yakima Air Term/Mcallister
United States
Destination: KPDX Portland Intl
United States
More flights between these airports :: More routes between these airports
Route: NACHES4 YKM V25 LTJ YENTL HHOOD4
File this flight plan on PilotEdge
Remarks:
Altitude:
(Current/Filed)
18,000ft
Speed:
(Current/Filed)
320kts
Departed: 02-Feb-20 12:02 PM
Arrived: 02-Feb-20 12:55 PM
Distance/Time
Traveled:
103nm/0:53
Distance/Time
To Go:
Arrived

Flight Plot

Page will automatically refresh every two minutes.

Flight plan parsing failed; only flown route is shown


Map Options




Map Legend


Flown Route
Filed Route
Departure Airport
Arrival Airport
Navaid (VOR, NDB)
Fix

Horizontal Profiles

Position Reports

Time Latitude Longitude Heading Altitude Ground
Speed
02-Feb-20 11:34 46.573068 -120.553195 249 1094ft 0kts
02-Feb-20 11:35 46.573068 -120.553195 249 1094ft 0kts
02-Feb-20 11:36 46.573068 -120.553195 249 1094ft 0kts
02-Feb-20 11:37 46.573068 -120.553195 249 1094ft 0kts
02-Feb-20 11:38 46.573068 -120.553195 249 1094ft 0kts
02-Feb-20 11:39 46.573068 -120.553195 249 1094ft 0kts
02-Feb-20 11:40 46.573068 -120.553195 249 1094ft 0kts
02-Feb-20 11:41 46.573068 -120.553195 249 1094ft 0kts
02-Feb-20 11:42 46.573068 -120.553195 249 1094ft 0kts
02-Feb-20 11:43 46.573068 -120.553195 249 1094ft 0kts
02-Feb-20 11:44 46.573068 -120.553195 249 1094ft 0kts
02-Feb-20 11:45 46.573068 -120.553195 249 1094ft 0kts
02-Feb-20 11:46 46.573068 -120.553195 249 1094ft 0kts
02-Feb-20 11:47 46.573068 -120.553195 249 1094ft 0kts
02-Feb-20 11:48 46.573068 -120.553195 249 1094ft 0kts
02-Feb-20 11:49 46.573068 -120.553195 249 1094ft 0kts
02-Feb-20 11:50 46.573068 -120.553195 249 1094ft 0kts
02-Feb-20 11:51 46.573068 -120.553195 249 1094ft 0kts
02-Feb-20 11:52 46.573068 -120.553195 249 1094ft 0kts
02-Feb-20 11:53 46.573053 -120.553283 249 1095ft 0kts
02-Feb-20 11:54 46.572172 -120.553365 111 1094ft 9kts
02-Feb-20 11:55 46.570914 -120.548352 110 1084ft 12kts
02-Feb-20 11:56 46.569581 -120.542957 110 1074ft 18kts
02-Feb-20 11:57 46.567947 -120.536445 110 1062ft 14kts
02-Feb-20 11:58 46.566477 -120.531526 162 1053ft 0kts
02-Feb-20 11:59 46.566476 -120.531526 161 1053ft 0kts
02-Feb-20 12:00 46.565587 -120.531845 289 1053ft 3kts
02-Feb-20 12:01 46.576423 -120.565990 321 1900ft 151kts
02-Feb-20 12:02 46.617243 -120.594683 334 3802ft 173kts
02-Feb-20 12:03 46.660898 -120.624545 334 5773ft 177kts
02-Feb-20 12:04 46.699420 -120.663629 277 7820ft 180kts
02-Feb-20 12:05 46.663723 -120.696541 161 9683ft 195kts
02-Feb-20 12:06 46.603522 -120.667875 164 10007ft 261kts
02-Feb-20 12:07 46.537722 -120.639096 158 11610ft 244kts
02-Feb-20 12:08 46.472975 -120.612915 168 13076ft 237kts
02-Feb-20 12:09 46.411225 -120.588706 170 15049ft 222kts
02-Feb-20 12:10 46.358906 -120.608646 215 17062ft 193kts
02-Feb-20 12:11 46.310803 -120.646210 215 18238ft 217kts
02-Feb-20 12:12 46.250585 -120.693004 213 18223ft 267kts
02-Feb-20 12:13 46.181945 -120.745788 213 18217ft 291kts
02-Feb-20 12:14 46.108910 -120.801780 213 18218ft 300kts
02-Feb-20 12:15 46.034781 -120.858861 213 18228ft 303kts
02-Feb-20 12:16 45.960128 -120.915888 213 18235ft 304kts
02-Feb-20 12:17 45.886673 -120.971680 213 18234ft 305kts
02-Feb-20 12:18 45.812488 -121.027793 212 18233ft 306kts
02-Feb-20 12:19 45.737752 -121.084419 213 17339ft 300kts
02-Feb-20 12:20 45.690445 -121.173763 249 15834ft 281kts
02-Feb-20 12:21 45.659246 -121.275968 249 14329ft 280kts
02-Feb-20 12:22 45.627365 -121.377283 248 12927ft 276kts
02-Feb-20 12:23 45.598458 -121.470797 251 12608ft 253kts
02-Feb-20 12:24 45.571630 -121.567754 251 11143ft 270kts
02-Feb-20 12:25 45.543865 -121.666770 250 9973ft 268kts
02-Feb-20 12:26 45.531181 -121.764677 275 10000ft 250kts
02-Feb-20 12:27 45.535177 -121.864732 275 10001ft 256kts
02-Feb-20 12:28 45.541090 -121.968037 285 9999ft 262kts
02-Feb-20 12:29 45.561684 -122.068124 289 9997ft 264kts
02-Feb-20 12:30 45.582791 -122.168849 288 9996ft 264kts
02-Feb-20 12:31 45.603759 -122.269978 288 9996ft 265kts
02-Feb-20 12:32 45.624319 -122.369162 288 8980ft 253kts
02-Feb-20 12:33 45.644610 -122.464247 294 7462ft 245kts
02-Feb-20 12:34 45.673947 -122.547690 299 6018ft 242kts
02-Feb-20 12:35 45.704361 -122.631994 299 4979ft 222kts
02-Feb-20 12:36 45.728958 -122.701083 297 5007ft 196kts
02-Feb-20 12:37 45.751042 -122.778665 294 4988ft 219kts
02-Feb-20 12:38 45.751729 -122.851942 209 3503ft 196kts
02-Feb-20 12:39 45.703790 -122.838301 145 3003ft 188kts
02-Feb-20 12:40 45.664438 -122.792113 123 2858ft 172kts
02-Feb-20 12:41 45.639347 -122.740189 115 2223ft 161kts
02-Feb-20 12:42 45.621873 -122.681882 106 2737ft 161kts
02-Feb-20 12:43 45.642478 -122.637256 21 3584ft 170kts
02-Feb-20 12:44 45.687452 -122.629655 313 4036ft 175kts
02-Feb-20 12:45 45.707544 -122.692312 294 2979ft 171kts
02-Feb-20 12:46 45.726979 -122.756702 294 2981ft 173kts
02-Feb-20 12:47 45.745781 -122.819472 294 2976ft 169kts
02-Feb-20 12:48 45.714826 -122.864187 185 2956ft 191kts
02-Feb-20 12:49 45.674313 -122.822037 122 2955ft 173kts
02-Feb-20 12:50 45.652097 -122.768317 117 2371ft 142kts
02-Feb-20 12:51 45.633300 -122.719772 117 1618ft 145kts
02-Feb-20 12:53 45.615112 -122.672873 117 866ft 128kts
02-Feb-20 12:54 45.597218 -122.626880 117 162ft 119kts
02-Feb-20 12:55 45.586443 -122.599149 109 27ft 23kts
02-Feb-20 12:56 45.587743 -122.599319 297 27ft 18kts
02-Feb-20 12:57 45.590868 -122.602587 47 27ft 17kts
02-Feb-20 12:58 45.593499 -122.597335 98 27ft 16kts
02-Feb-20 12:59 45.591947 -122.591538 118 27ft 16kts

Navigation Log

Ident Type
Flight plan parsing failed, navigation log unavailable